createdAt,value
2017-07-23T00:00:38.339Z,49.8
2017-07-23T00:01:40.135Z,50.1
2017-07-23T00:02:41.956Z,50
2017-07-23T00:03:43.755Z,49.9
2017-07-23T00:04:45.224Z,49.9
2017-07-23T00:05:47.026Z,49.9
2017-07-23T00:06:49.171Z,50.3
2017-07-23T00:07:50.970Z,50
2017-07-23T00:08:52.769Z,50.1
2017-07-23T00:09:54.545Z,50
2017-07-23T00:10:56.343Z,50.2
2017-07-23T00:11:58.117Z,49.9
2017-07-23T00:12:59.923Z,50.2
2017-07-23T00:14:02.051Z,50
2017-07-23T00:15:04.182Z,49.9
2017-07-23T00:16:06.317Z,50.2
2017-07-23T00:17:08.119Z,50
2017-07-23T00:18:10.253Z,50.2
2017-07-23T00:20:23.552Z,50.3
2017-07-23T00:21:24.997Z,50
2017-07-23T00:22:26.798Z,50
2017-07-23T00:23:28.600Z,50.2
2017-07-23T00:24:30.728Z,50.4
2017-07-23T00:26:31.206Z,50
2017-07-23T00:27:33.372Z,50.4
2017-07-23T00:28:35.504Z,50.3
2017-07-23T00:29:37.309Z,50
2017-07-23T00:31:04.779Z,50.2
2017-07-23T00:32:06.246Z,50.4
2017-07-23T00:33:08.660Z,50.2
2017-07-23T00:34:10.463Z,50
2017-07-23T00:35:11.929Z,50.5
2017-07-23T00:36:13.727Z,50.2
2017-07-23T00:37:15.859Z,50.2
2017-07-23T00:38:17.655Z,50.2
2017-07-23T00:39:19.457Z,50.2
2017-07-23T00:40:21.257Z,50.1
2017-07-23T00:41:23.387Z,50.3
2017-07-23T00:42:25.527Z,50.3
2017-07-23T00:43:26.980Z,50.2
2017-07-23T00:44:28.091Z,50.4
2017-07-23T00:45:29.538Z,50
2017-07-23T00:46:31.317Z,50.2
2017-07-23T00:47:33.118Z,50.2
2017-07-23T00:48:34.919Z,50.3
2017-07-23T00:49:36.695Z,50.3
2017-07-23T00:50:38.826Z,50.5
2017-07-23T00:51:40.958Z,50.1
2017-07-23T00:52:42.427Z,50.3
2017-07-23T00:53:44.229Z,50.3
2017-07-23T00:54:46.362Z,50.1
2017-07-23T00:55:48.496Z,50.3
2017-07-23T00:56:50.629Z,50.2
2017-07-23T00:57:52.761Z,50.2
2017-07-23T00:58:54.538Z,50.1
2017-07-23T00:59:56.673Z,50.2
2017-07-23T01:00:58.475Z,50
2017-07-23T01:02:00.277Z,50.3
2017-07-23T01:03:02.076Z,50
2017-07-23T01:04:03.532Z,50.3
2017-07-23T01:05:05.318Z,50.4
2017-07-23T01:06:06.787Z,50
2017-07-23T01:07:08.920Z,50.1
2017-07-23T01:08:10.364Z,50.1
2017-07-23T01:09:12.496Z,50.1
2017-07-23T01:10:14.294Z,50.2
2017-07-23T01:11:16.428Z,50
2017-07-23T01:12:17.894Z,50.1
2017-07-23T01:13:20.026Z,50.2
2017-07-23T01:14:22.157Z,50.1
2017-07-23T01:15:24.288Z,50.4
2017-07-23T01:16:26.420Z,50.2
2017-07-23T01:17:27.950Z,50.1
2017-07-23T01:18:29.747Z,50.3
2017-07-23T01:19:31.549Z,50.1
2017-07-23T01:20:33.682Z,50.3
2017-07-23T01:21:35.462Z,50
2017-07-23T01:22:37.592Z,50.2
2017-07-23T01:23:39.394Z,50.4
2017-07-23T01:24:41.195Z,50.2
2017-07-23T01:25:42.643Z,50.4
2017-07-23T01:26:43.756Z,50.1
2017-07-23T01:27:45.888Z,50.3
2017-07-23T01:28:47.688Z,50.3
2017-07-23T01:29:49.822Z,50.1
2017-07-23T01:30:51.267Z,50.1
2017-07-23T01:31:53.397Z,50.1
2017-07-23T01:32:55.534Z,50.2
2017-07-23T01:33:56.996Z,50.2
2017-07-23T01:34:58.772Z,50
2017-07-23T01:36:00.904Z,50.3
2017-07-23T01:37:02.680Z,50.1
2017-07-23T01:38:04.478Z,50.1
2017-07-23T01:39:06.610Z,50
2017-07-23T01:40:08.057Z,50.5
2017-07-23T01:41:09.903Z,50.1
2017-07-23T01:42:12.035Z,50.1
2017-07-23T01:43:13.836Z,50.4
2017-07-23T01:44:15.968Z,50
2017-07-23T01:45:17.411Z,50.1
2017-07-23T01:46:19.545Z,50.4
2017-07-23T01:47:21.673Z,50
2017-07-23T01:48:23.807Z,50
2017-07-23T01:49:25.937Z,50.4
2017-07-23T01:50:27.774Z,50.2
2017-07-23T01:51:29.893Z,50.1
2017-07-23T01:52:31.692Z,50.1
2017-07-23T01:53:33.492Z,50.1
2017-07-23T01:54:34.630Z,50.1
2017-07-23T01:55:36.763Z,50.4
2017-07-23T01:56:38.542Z,50.3
2017-07-23T01:57:40.673Z,50.2
2017-07-23T01:58:42.803Z,50.4
2017-07-23T01:59:44.936Z,49.9
2017-07-23T02:00:46.736Z,50.1
2017-07-23T02:01:48.868Z,50.2
2017-07-23T02:02:50.998Z,50.4
2017-07-23T02:03:52.775Z,50.2
2017-07-23T02:04:53.914Z,50
2017-07-23T02:05:55.689Z,50.6
2017-07-23T02:06:57.489Z,50.3
2017-07-23T02:07:59.287Z,50.2
2017-07-23T02:09:00.755Z,50.3
2017-07-23T02:10:02.554Z,50.1
2017-07-23T02:11:04.332Z,50.1
2017-07-23T02:12:06.178Z,50.1
2017-07-23T02:13:07.625Z,50.6
2017-07-23T02:14:09.756Z,50.2
2017-07-23T02:15:11.558Z,50.2
2017-07-23T02:16:13.688Z,50.2
2017-07-23T02:17:15.159Z,50.2
2017-07-23T02:18:16.958Z,50.1
2017-07-23T02:19:18.761Z,50.1
2017-07-23T02:20:20.560Z,50.2
2017-07-23T02:21:22.701Z,50.2
2017-07-23T02:22:24.830Z,50.1
2017-07-23T02:23:26.963Z,50.1
2017-07-23T02:24:29.095Z,50.2
2017-07-23T02:25:31.226Z,50.2
2017-07-23T02:26:33.026Z,50.2
2017-07-23T02:27:34.831Z,50.1
2017-07-23T02:28:36.628Z,50.1
2017-07-23T02:29:38.757Z,50
2017-07-23T02:30:40.887Z,50.4
2017-07-23T02:31:43.023Z,50.2
2017-07-23T02:32:44.472Z,50
2017-07-23T02:33:46.615Z,50.1
2017-07-23T02:34:48.786Z,50.4
2017-07-23T02:35:50.917Z,50.1
2017-07-23T02:36:53.062Z,50
2017-07-23T02:37:55.184Z,50.1
2017-07-23T02:38:56.989Z,50
2017-07-23T02:39:59.122Z,50
2017-07-23T02:41:01.255Z,50.3
2017-07-23T02:42:03.387Z,50
2017-07-23T02:43:05.165Z,50.3
2017-07-23T02:44:07.298Z,50.3
2017-07-23T02:45:09.084Z,50
2017-07-23T02:46:10.551Z,50.1
2017-07-23T02:47:12.682Z,50.1
2017-07-23T02:48:14.482Z,50.3
2017-07-23T02:49:16.615Z,50.2
2017-07-23T02:50:18.080Z,49.9
2017-07-23T02:51:19.880Z,50.2
2017-07-23T02:52:22.011Z,50.1
2017-07-23T02:53:23.810Z,49.9
2017-07-23T02:54:25.601Z,50.1
2017-07-23T02:55:27.038Z,50
2017-07-23T02:56:29.174Z,50.2
2017-07-23T02:57:31.369Z,50.1
2017-07-23T02:58:33.497Z,50.1
2017-07-23T02:59:35.632Z,50.2
2017-07-23T03:00:37.086Z,50.2
2017-07-23T03:01:38.862Z,50.2
2017-07-23T03:02:41.013Z,50
2017-07-23T03:03:42.797Z,50.2
2017-07-23T03:04:44.931Z,50.3
2017-07-23T03:05:47.064Z,50
2017-07-23T03:06:49.196Z,50
2017-07-23T03:07:51.003Z,50
2017-07-23T03:08:52.449Z,49.9
2017-07-23T03:09:54.223Z,50
2017-07-23T03:10:56.010Z,50.2
2017-07-23T03:11:57.813Z,50.2
2017-07-23T03:12:59.614Z,50.4
2017-07-23T03:14:01.745Z,50
2017-07-23T03:15:03.878Z,50.6
2017-07-23T03:16:06.012Z,49.9
2017-07-23T03:17:08.143Z,50.4
2017-07-23T03:18:10.277Z,50
2017-07-23T03:19:12.079Z,50.3
2017-07-23T03:20:13.883Z,50.3
2017-07-23T03:21:15.682Z,50.2
2017-07-23T03:22:17.813Z,50.1
2017-07-23T03:23:19.952Z,49.9
2017-07-23T03:24:21.062Z,49.9
2017-07-23T03:25:22.841Z,50
2017-07-23T03:26:24.977Z,50
2017-07-23T03:27:27.109Z,50.3
2017-07-23T03:28:29.241Z,49.9
2017-07-23T03:29:31.041Z,49.9
2017-07-23T03:30:32.159Z,50
2017-07-23T03:31:34.296Z,50
2017-07-23T03:32:36.426Z,49.9
2017-07-23T03:33:38.558Z,49.9
2017-07-23T03:34:40.694Z,50
2017-07-23T03:35:42.503Z,50
2017-07-23T03:36:44.301Z,50.2
2017-07-23T03:37:46.436Z,50.1
2017-07-23T03:38:48.568Z,50.1
2017-07-23T03:39:50.356Z,49.9
2017-07-23T03:40:52.157Z,50.2
2017-07-23T03:41:53.951Z,50.4
2017-07-23T03:42:55.749Z,50.5
2017-07-23T03:43:57.878Z,50
2017-07-23T03:44:59.323Z,50
2017-07-23T03:46:01.455Z,50.5
2017-07-23T03:47:02.903Z,50.6
2017-07-23T03:48:05.036Z,50.6
2017-07-23T03:49:07.169Z,50
2017-07-23T03:50:08.617Z,50.6
2017-07-23T03:51:10.085Z,50.1
2017-07-23T03:52:11.553Z,49.9
2017-07-23T03:53:13.688Z,49.9
2017-07-23T03:54:15.468Z,50.3
2017-07-23T03:55:17.270Z,50
2017-07-23T03:56:19.405Z,50.5
2017-07-23T03:57:20.871Z,50.5
2017-07-23T03:58:22.675Z,50.7
2017-07-23T03:59:24.478Z,50
2017-07-23T04:00:26.617Z,50.1
2017-07-23T04:01:28.420Z,50
2017-07-23T04:02:30.202Z,50.3
2017-07-23T04:03:32.338Z,50
2017-07-23T04:04:34.137Z,50.1
2017-07-23T04:05:35.247Z,50.1
2017-07-23T04:06:37.029Z,50
2017-07-23T04:07:38.490Z,50.1
2017-07-23T04:08:40.621Z,49.9
2017-07-23T04:09:42.854Z,50.2
2017-07-23T04:10:44.985Z,50
2017-07-23T04:11:47.124Z,50
2017-07-23T04:12:48.583Z,50.1
2017-07-23T04:13:50.050Z,50.2
2017-07-23T04:14:51.849Z,49.9
2017-07-23T04:15:53.652Z,50.1
2017-07-23T04:16:55.789Z,49.9
2017-07-23T04:17:57.918Z,50
2017-07-23T04:18:59.716Z,50.1
2017-07-23T04:20:01.848Z,50
2017-07-23T04:21:03.628Z,50.4
2017-07-23T04:22:05.093Z,50.2
2017-07-23T04:23:07.227Z,49.9
2017-07-23T04:24:09.006Z,50.2
2017-07-23T04:25:10.473Z,50.4
2017-07-23T04:26:12.603Z,50.1
2017-07-23T04:27:14.383Z,50.1
2017-07-23T04:28:16.158Z,50
2017-07-23T04:29:17.958Z,50.3
2017-07-23T04:30:20.090Z,50.1
2017-07-23T04:31:22.221Z,50
2017-07-23T04:32:24.023Z,50.3
2017-07-23T04:33:26.156Z,50.2
2017-07-23T04:34:27.933Z,49.9
2017-07-23T04:35:29.733Z,50.5
2017-07-23T04:36:31.535Z,50
2017-07-23T04:37:33.336Z,50.4
2017-07-23T04:38:35.476Z,50
2017-07-23T04:39:37.607Z,50.1
2017-07-23T04:40:39.791Z,50.1
2017-07-23T04:41:40.907Z,50.1
2017-07-23T04:42:42.709Z,50.3
2017-07-23T04:43:44.850Z,49.8
2017-07-23T04:44:46.984Z,49.3
2017-07-23T04:45:49.117Z,49.1
2017-07-23T04:46:51.250Z,49.5
2017-07-23T04:47:53.387Z,49.3
2017-07-23T04:48:55.189Z,48.9
2017-07-23T04:49:57.322Z,48.5
2017-07-23T04:50:59.456Z,48.5
2017-07-23T04:52:01.260Z,48.8
2017-07-23T04:53:03.395Z,48.4
2017-07-23T04:54:04.864Z,48.9
2017-07-23T04:55:06.997Z,49.1
2017-07-23T04:56:09.130Z,49.4
2017-07-23T04:57:11.264Z,49.1
2017-07-23T04:58:13.038Z,49.7
2017-07-23T04:59:15.175Z,49.1
2017-07-23T05:00:16.642Z,49.9
2017-07-23T05:01:18.777Z,49.6
2017-07-23T05:02:20.582Z,49.6
2017-07-23T05:03:22.358Z,49.7
2017-07-23T05:04:23.807Z,49.8
2017-07-23T05:05:25.937Z,49.5
2017-07-23T05:06:27.740Z,49.4
2017-07-23T05:07:29.525Z,49.8
2017-07-23T05:08:30.972Z,49.7
2017-07-23T05:09:32.425Z,49.8
2017-07-23T05:10:34.562Z,49.7
2017-07-23T05:11:36.392Z,49.9
2017-07-23T05:12:38.193Z,49.5
2017-07-23T05:13:40.001Z,49.7
2017-07-23T05:14:41.806Z,49.6
2017-07-23T05:15:43.613Z,49.9
2017-07-23T05:16:45.744Z,49.6
2017-07-23T05:17:47.878Z,49.6
2017-07-23T05:18:49.676Z,49.7
2017-07-23T05:19:51.142Z,49.6
2017-07-23T05:20:53.277Z,49.5
2017-07-23T05:21:54.716Z,49.8
2017-07-23T05:22:56.851Z,49.4
2017-07-23T05:23:58.632Z,49.5
2017-07-23T05:25:00.436Z,49.5
2017-07-23T05:26:01.574Z,49.6
2017-07-23T05:27:03.040Z,49.5
2017-07-23T05:28:04.841Z,49.1
2017-07-23T05:29:06.648Z,49.6
2017-07-23T05:30:08.782Z,49.8
2017-07-23T05:31:10.606Z,49.8
2017-07-23T05:32:12.731Z,49.3
2017-07-23T05:33:14.184Z,49.4
2017-07-23T05:34:16.318Z,49.3
2017-07-23T05:35:17.766Z,49.6
2017-07-23T05:36:19.213Z,49.3
2017-07-23T05:37:21.012Z,49.2
2017-07-23T05:38:22.462Z,49.3
2017-07-23T05:39:24.263Z,49.7
2017-07-23T05:40:26.398Z,49.8
2017-07-23T05:41:28.529Z,49.6
2017-07-23T05:42:29.976Z,49.4
2017-07-23T05:43:32.111Z,49.4
2017-07-23T05:44:34.242Z,49.1
2017-07-23T05:45:36.043Z,49.7
2017-07-23T05:46:37.846Z,49.3
2017-07-23T05:47:39.295Z,49.3
2017-07-23T05:48:41.077Z,49.3
2017-07-23T05:49:43.209Z,49.6
2017-07-23T05:50:44.984Z,49.3
2017-07-23T05:51:46.786Z,49.3
2017-07-23T05:52:48.920Z,49.3
2017-07-23T05:53:50.389Z,49.5
2017-07-23T05:54:52.165Z,49.6
2017-07-23T05:55:53.973Z,49.2
2017-07-23T05:56:55.746Z,49.6
2017-07-23T05:57:57.214Z,49.5
2017-07-23T05:58:59.346Z,49.3
2017-07-23T06:00:01.481Z,49.6
2017-07-23T06:01:03.258Z,49.6
2017-07-23T06:02:04.727Z,49.3
2017-07-23T06:03:06.506Z,49.3
2017-07-23T06:04:07.979Z,49.3
2017-07-23T06:05:09.776Z,49.6
2017-07-23T06:06:11.575Z,49.4
2017-07-23T06:07:13.381Z,49.6
2017-07-23T06:08:15.563Z,49.4
2017-07-23T06:09:17.696Z,49.3
2017-07-23T06:10:19.163Z,49.8
2017-07-23T06:11:20.616Z,49.4
2017-07-23T06:12:21.734Z,49.4
2017-07-23T06:13:23.869Z,49.6
2017-07-23T06:14:26.000Z,49.5
2017-07-23T06:15:28.137Z,49.4
2017-07-23T06:16:29.941Z,49.5
2017-07-23T06:17:32.079Z,49.5
2017-07-23T06:18:33.880Z,49.5
2017-07-23T06:19:36.013Z,49.4
2017-07-23T06:20:38.145Z,49.4
2017-07-23T06:21:39.592Z,49.4
2017-07-23T06:22:41.406Z,49.4
2017-07-23T06:23:42.543Z,49.4
2017-07-23T06:24:44.673Z,49.5
2017-07-23T06:25:46.138Z,49.2
2017-07-23T06:26:48.273Z,49.1
2017-07-23T06:27:49.725Z,49.1
2017-07-23T06:28:51.903Z,49.1
2017-07-23T06:29:53.691Z,49.6
2017-07-23T06:30:55.488Z,49.6
2017-07-23T06:31:57.290Z,49.4
2017-07-23T06:32:58.733Z,49.2
2017-07-23T06:34:00.866Z,49.4
2017-07-23T06:35:03.003Z,49.4
2017-07-23T06:36:04.144Z,49.1
2017-07-23T06:37:06.275Z,49.2
2017-07-23T06:38:08.175Z,49.4
2017-07-23T06:39:09.975Z,49.5
2017-07-23T06:40:12.107Z,49.2
2017-07-23T06:41:13.912Z,49.1
2017-07-23T06:42:16.046Z,49
2017-07-23T06:43:17.882Z,49.3
2017-07-23T06:44:20.014Z,49.2
2017-07-23T06:45:21.485Z,49.2
2017-07-23T06:46:22.952Z,49.2
2017-07-23T06:47:24.730Z,49.1
2017-07-23T06:48:25.846Z,49.1
2017-07-23T06:49:27.314Z,49.3
2017-07-23T06:50:29.117Z,49.1
2017-07-23T06:51:30.926Z,49.1
2017-07-23T06:52:33.055Z,49.1
2017-07-23T06:53:34.857Z,49.3
2017-07-23T06:54:36.661Z,49.3
2017-07-23T06:55:38.446Z,49
2017-07-23T06:56:40.244Z,49.3
2017-07-23T06:57:41.720Z,49.3
2017-07-23T06:58:43.520Z,49.2
2017-07-23T06:59:45.321Z,49.2
2017-07-23T07:00:46.793Z,49.1
2017-07-23T07:01:48.241Z,48.8
2017-07-23T07:02:49.717Z,48.9
2017-07-23T07:03:51.850Z,48.9
2017-07-23T07:04:53.979Z,48.9
2017-07-23T07:05:56.114Z,48.9
2017-07-23T07:06:58.247Z,49.1
2017-07-23T07:08:00.057Z,49.1
2017-07-23T07:09:01.521Z,48.5
2017-07-23T07:10:03.654Z,48.5
2017-07-23T07:11:05.456Z,48.7
2017-07-23T07:12:06.929Z,49.1
2017-07-23T07:13:08.728Z,48.4
2017-07-23T07:14:10.529Z,48.8
2017-07-23T07:15:12.309Z,49.2
2017-07-23T07:16:13.432Z,49.1
2017-07-23T07:17:15.240Z,49
2017-07-23T07:18:17.036Z,49.2
2017-07-23T07:19:18.837Z,48.9
2017-07-23T07:20:20.643Z,48.8
2017-07-23T07:21:22.776Z,49
2017-07-23T07:22:24.574Z,48.9
2017-07-23T07:23:26.041Z,49
2017-07-23T07:24:27.843Z,48.9
2017-07-23T07:25:29.667Z,48.9
2017-07-23T07:26:31.464Z,48.8
2017-07-23T07:27:32.935Z,48.8
2017-07-23T07:28:34.729Z,49
2017-07-23T07:29:36.532Z,48.9
2017-07-23T07:30:38.332Z,49
2017-07-23T07:31:40.119Z,48.7
2017-07-23T07:32:41.922Z,49.1
2017-07-23T07:33:43.700Z,49.1
2017-07-23T07:34:45.498Z,48.8
2017-07-23T07:35:47.311Z,48.8
2017-07-23T07:36:48.774Z,48.8
2017-07-23T07:37:50.228Z,48.8
2017-07-23T07:38:51.342Z,48.8
2017-07-23T07:39:53.474Z,48.7
2017-07-23T07:40:55.613Z,48.5
2017-07-23T07:41:57.079Z,49.1
2017-07-23T07:42:59.215Z,48.8
2017-07-23T07:44:01.345Z,48.5
2017-07-23T07:45:03.148Z,48.7
2017-07-23T07:46:04.949Z,48.4
2017-07-23T07:47:07.081Z,48.7
2017-07-23T07:48:08.197Z,48.5
2017-07-23T07:49:10.002Z,48.5
2017-07-23T07:50:12.137Z,48.6
2017-07-23T07:51:13.583Z,48.6
2017-07-23T07:52:14.694Z,48.8
2017-07-23T07:53:16.156Z,48.7
2017-07-23T07:54:17.962Z,48.8
2017-07-23T07:55:20.096Z,48.6
2017-07-23T07:56:21.875Z,48.6
2017-07-23T07:57:23.680Z,48.7
2017-07-23T07:58:25.815Z,48.7
2017-07-23T07:59:27.949Z,48.8
2017-07-23T08:00:29.755Z,48.6
2017-07-23T08:01:31.559Z,48.7
2017-07-23T08:02:33.693Z,48.3
2017-07-23T08:03:34.481Z,48.5
2017-07-23T08:04:35.926Z,48.2
2017-07-23T08:05:37.395Z,48.3
2017-07-23T08:06:38.864Z,48.3
2017-07-23T08:07:40.321Z,48.2
2017-07-23T08:08:42.123Z,48.7
2017-07-23T08:09:43.921Z,48.5
2017-07-23T08:10:45.729Z,48.4
2017-07-23T08:11:47.532Z,48.6
2017-07-23T08:12:49.333Z,48.5
2017-07-23T08:13:51.464Z,48.5
2017-07-23T08:14:53.243Z,48.6
2017-07-23T08:15:55.379Z,48.7
2017-07-23T08:16:57.180Z,48.4
2017-07-23T08:17:58.984Z,48.5
2017-07-23T08:19:00.785Z,48.6
2017-07-23T08:20:02.583Z,48.3
2017-07-23T08:21:03.696Z,48.2
2017-07-23T08:22:05.834Z,48.1
2017-07-23T08:23:07.302Z,48.1
2017-07-23T08:24:09.105Z,48.2
2017-07-23T08:25:11.239Z,48.1
2017-07-23T08:26:13.380Z,48.2
2017-07-23T08:27:14.843Z,48.1
2017-07-23T08:28:16.647Z,48.1
2017-07-23T08:29:17.787Z,48.2
2017-07-23T08:30:19.603Z,48.3
2017-07-23T08:31:21.401Z,48.3
2017-07-23T08:32:22.870Z,48.4
2017-07-23T08:33:24.671Z,48.1
2017-07-23T08:34:26.806Z,48.3
2017-07-23T08:35:28.937Z,48.3
2017-07-23T08:36:30.720Z,48.2
2017-07-23T08:37:32.854Z,48.3
2017-07-23T08:38:34.636Z,48.4
2017-07-23T08:39:36.085Z,48.2
2017-07-23T08:40:38.222Z,48.3
2017-07-23T08:41:39.665Z,48.5
2017-07-23T08:42:41.466Z,48.4
2017-07-23T08:43:42.933Z,48.3
2017-07-23T08:44:45.068Z,48.2
2017-07-23T08:45:46.519Z,48.2
2017-07-23T08:46:48.297Z,48.4
2017-07-23T08:47:50.435Z,48.3
2017-07-23T08:48:52.251Z,48.5
2017-07-23T08:49:53.722Z,48.5
2017-07-23T08:50:55.854Z,48.2
2017-07-23T08:51:57.349Z,48.4
2017-07-23T08:52:58.813Z,48.5
2017-07-23T08:54:00.942Z,48.2
2017-07-23T08:55:02.741Z,48.2
2017-07-23T08:56:03.528Z,48.1
2017-07-23T08:57:05.335Z,48.1
2017-07-23T08:58:07.467Z,47.9
2017-07-23T08:59:08.589Z,48.4
2017-07-23T09:00:10.718Z,48.2
2017-07-23T09:01:11.833Z,47.9
2017-07-23T09:02:13.965Z,47.9
2017-07-23T09:03:15.768Z,47.8
2017-07-23T09:04:17.231Z,48.6
2017-07-23T09:05:19.365Z,48.2
2017-07-23T09:06:21.166Z,48.2
2017-07-23T09:07:23.303Z,48.1
2017-07-23T09:08:25.109Z,47.9
2017-07-23T09:09:26.917Z,48.4
2017-07-23T09:10:28.719Z,48.1
2017-07-23T09:11:30.506Z,47.8
2017-07-23T09:12:32.283Z,47.8
2017-07-23T09:13:34.083Z,48.4
2017-07-23T09:14:36.218Z,47.8
2017-07-23T09:15:38.022Z,48.1
2017-07-23T09:16:40.156Z,48.4
2017-07-23T09:17:41.956Z,48
2017-07-23T09:18:44.094Z,48.1
2017-07-23T09:19:45.900Z,48.6
2017-07-23T09:20:48.032Z,47.7
2017-07-23T09:21:50.170Z,47.8
2017-07-23T09:22:51.970Z,48.1
2017-07-23T09:23:53.769Z,48
2017-07-23T09:24:55.552Z,48.1
2017-07-23T09:25:57.001Z,48
2017-07-23T09:26:59.143Z,48.1
2017-07-23T09:28:01.270Z,48.2
2017-07-23T09:29:02.742Z,48
2017-07-23T09:30:04.887Z,47.8
2017-07-23T09:31:07.024Z,48.1
2017-07-23T09:32:08.497Z,48.1
2017-07-23T09:33:10.042Z,47.6
2017-07-23T09:34:11.488Z,48
2017-07-23T09:35:12.608Z,48
2017-07-23T09:36:14.742Z,47.8
2017-07-23T09:37:16.213Z,48
2017-07-23T09:38:18.014Z,48
2017-07-23T09:39:19.461Z,48.1
2017-07-23T09:40:21.268Z,47.9
2017-07-23T09:41:23.409Z,48.3
2017-07-23T09:42:25.541Z,47.6
2017-07-23T09:43:26.992Z,47.6
2017-07-23T09:44:28.796Z,47.5
2017-07-23T09:45:30.929Z,47.6
2017-07-23T09:46:32.737Z,47.9
2017-07-23T09:47:34.540Z,47.6
2017-07-23T09:48:36.321Z,47.8
2017-07-23T09:49:38.453Z,47.7
2017-07-23T09:50:40.252Z,47.3
2017-07-23T09:51:41.721Z,47.4
2017-07-23T09:52:43.188Z,47.8
2017-07-23T09:53:44.994Z,47.9
2017-07-23T09:54:47.131Z,47.7
2017-07-23T09:55:48.607Z,47.7
2017-07-23T09:56:50.737Z,47.8
2017-07-23T09:57:52.541Z,47.4
2017-07-23T09:58:54.674Z,47.3
2017-07-23T09:59:55.811Z,47.5
2017-07-23T10:00:57.593Z,47.8
2017-07-23T10:01:59.065Z,47.6
2017-07-23T10:03:00.516Z,47.3
2017-07-23T10:04:01.984Z,47.6
2017-07-23T10:05:04.113Z,47.3
2017-07-23T10:06:06.247Z,47.4
2017-07-23T10:07:07.706Z,47.6
2017-07-23T10:08:09.837Z,47.5
2017-07-23T10:09:11.308Z,47.3
2017-07-23T10:10:12.779Z,47.6
2017-07-23T10:11:14.916Z,47.6
2017-07-23T10:12:16.718Z,47.5
2017-07-23T10:13:18.520Z,47.2
2017-07-23T10:14:20.653Z,47.5
2017-07-23T10:15:22.103Z,47.3
2017-07-23T10:16:23.906Z,47.2
2017-07-23T10:17:25.685Z,47.2
2017-07-23T10:18:27.157Z,47.6
2017-07-23T10:19:29.037Z,47.6
2017-07-23T10:20:31.171Z,47.7
2017-07-23T10:21:32.976Z,47.4
2017-07-23T10:22:34.760Z,47.5
2017-07-23T10:23:36.566Z,47.6
2017-07-23T10:24:38.799Z,47.2
2017-07-23T10:25:40.610Z,47.7
2017-07-23T10:26:42.418Z,47.4
2017-07-23T10:27:44.556Z,47.7
2017-07-23T10:28:46.363Z,47.2
2017-07-23T10:29:47.533Z,47.3
2017-07-23T10:30:49.666Z,47.2
2017-07-23T10:31:51.470Z,47.3
2017-07-23T10:32:53.269Z,47.2
2017-07-23T10:33:54.743Z,47.2
2017-07-23T10:34:56.190Z,47.5
2017-07-23T10:35:58.324Z,47.1
2017-07-23T10:37:00.460Z,47.2
2017-07-23T10:38:02.594Z,47.3
2017-07-23T10:39:04.394Z,47.3
2017-07-23T10:40:05.867Z,47
2017-07-23T10:41:08.001Z,47.3
2017-07-23T10:42:10.133Z,47.3
2017-07-23T10:43:11.271Z,47
2017-07-23T10:44:12.742Z,47
2017-07-23T10:45:14.878Z,47.3
2017-07-23T10:46:17.013Z,47.2
2017-07-23T10:47:19.151Z,47.4
2017-07-23T10:48:21.288Z,47
2017-07-23T10:49:23.419Z,47
2017-07-23T10:50:25.223Z,46.9
2017-07-23T10:51:27.352Z,47.2
2017-07-23T10:52:29.157Z,46.8
2017-07-23T10:53:31.292Z,47
2017-07-23T10:54:33.097Z,46.9
2017-07-23T10:55:35.234Z,46.9
2017-07-23T10:56:37.368Z,47
2017-07-23T10:57:39.505Z,47.2
2017-07-23T10:58:41.639Z,47.1
2017-07-23T10:59:43.773Z,47.1
2017-07-23T11:00:45.575Z,47.1
2017-07-23T11:01:46.692Z,47.1
2017-07-23T11:02:48.829Z,47
2017-07-23T11:03:50.635Z,47.1
2017-07-23T11:04:52.434Z,46.9
2017-07-23T11:05:54.212Z,47.2
2017-07-23T11:06:56.349Z,47.2
2017-07-23T11:07:58.148Z,47.3
2017-07-23T11:08:59.946Z,47
2017-07-23T11:10:02.084Z,46.9
2017-07-23T11:11:04.216Z,46.9
2017-07-23T11:12:05.685Z,46.7
2017-07-23T11:13:07.156Z,46.8
2017-07-23T11:14:08.606Z,46.6
2017-07-23T11:15:10.742Z,46.8
2017-07-23T11:16:12.543Z,46.4
2017-07-23T11:17:14.344Z,46.6
2017-07-23T11:18:16.152Z,46.6
2017-07-23T11:19:18.290Z,47.1
2017-07-23T11:20:20.098Z,46.8
2017-07-23T11:21:21.570Z,46.9
2017-07-23T11:22:23.024Z,46.7
2017-07-23T11:23:24.826Z,47
2017-07-23T11:24:26.628Z,47
2017-07-23T11:25:28.073Z,46.6
2017-07-23T11:26:30.210Z,46.6
2017-07-23T11:27:32.342Z,46.9
2017-07-23T11:28:34.480Z,46.7
2017-07-23T11:29:36.621Z,46.8
2017-07-23T11:30:38.853Z,46.5
2017-07-23T11:31:40.306Z,46.5
2017-07-23T11:32:42.103Z,46.4
2017-07-23T11:33:44.237Z,46.5
2017-07-23T11:34:46.382Z,46.8
2017-07-23T11:35:48.182Z,46.5
2017-07-23T11:36:50.317Z,46.7
2017-07-23T11:37:52.455Z,46.5
2017-07-23T11:38:54.587Z,46.6
2017-07-23T11:39:56.718Z,46.5
2017-07-23T11:40:58.853Z,46.4
2017-07-23T11:41:59.969Z,46.6
2017-07-23T11:43:01.769Z,46.5
2017-07-23T11:44:03.573Z,46.4
2017-07-23T11:45:05.709Z,46.5
2017-07-23T11:46:07.570Z,46.8
2017-07-23T11:47:09.369Z,46.8
2017-07-23T11:48:11.169Z,46.7
2017-07-23T11:49:12.974Z,46.7
2017-07-23T11:50:15.106Z,47
2017-07-23T11:51:17.241Z,46.8
2017-07-23T11:52:18.711Z,46.6
2017-07-23T11:53:19.848Z,46.4
2017-07-23T11:54:20.968Z,46.6
2017-07-23T11:55:23.102Z,46.4
2017-07-23T11:56:24.908Z,46.6
2017-07-23T11:57:27.041Z,46.7
2017-07-23T11:58:28.518Z,46.6
2017-07-23T11:59:30.316Z,46.7
2017-07-23T12:00:32.448Z,46.6
2017-07-23T12:01:34.253Z,46.7
2017-07-23T12:02:36.073Z,46.8
2017-07-23T12:03:37.544Z,46.7
2017-07-23T12:04:39.684Z,46.5
2017-07-23T12:05:41.137Z,46.4
2017-07-23T12:06:42.936Z,46.3
2017-07-23T12:07:44.736Z,46.7
2017-07-23T12:08:46.515Z,46.5
2017-07-23T12:09:48.647Z,46.5
2017-07-23T12:10:50.781Z,46.5
2017-07-23T12:11:52.919Z,46.5
2017-07-23T12:12:54.725Z,46.2
2017-07-23T12:13:56.171Z,46.1
2017-07-23T12:14:58.311Z,46.3
2017-07-23T12:16:00.110Z,46.3
2017-07-23T12:17:01.916Z,46.3
2017-07-23T12:18:03.717Z,45.9
2017-07-23T12:19:05.852Z,46.3
2017-07-23T12:20:07.987Z,46.5
2017-07-23T12:21:10.129Z,46.3
2017-07-23T12:22:11.944Z,46
2017-07-23T12:23:14.079Z,46.3
2017-07-23T12:24:15.881Z,45.8
2017-07-23T12:25:18.015Z,46.4
2017-07-23T12:26:19.819Z,46.1
2017-07-23T12:27:21.621Z,45.8
2017-07-23T12:28:23.429Z,46.1
2017-07-23T12:29:25.210Z,46
2017-07-23T12:30:27.019Z,45.9
2017-07-23T12:31:28.818Z,46.1
2017-07-23T12:32:30.617Z,46
2017-07-23T12:33:32.424Z,45.9
2017-07-23T12:34:34.206Z,45.8
2017-07-23T12:35:35.319Z,45.8
2017-07-23T12:36:37.120Z,46.1
2017-07-23T12:37:38.564Z,46.1
2017-07-23T12:38:40.368Z,46
2017-07-23T12:39:42.171Z,46.1
2017-07-23T12:40:43.979Z,46.3
2017-07-23T12:41:45.442Z,45.8
2017-07-23T12:42:47.243Z,45.8
2017-07-23T12:43:48.711Z,45.9
2017-07-23T12:44:50.519Z,45.8
2017-07-23T12:45:52.326Z,45.8
2017-07-23T12:46:54.461Z,46
2017-07-23T12:47:56.267Z,46.1
2017-07-23T12:48:58.069Z,46
2017-07-23T12:49:59.869Z,45.8
2017-07-23T12:51:01.339Z,45.8
2017-07-23T12:52:03.471Z,45.8
2017-07-23T12:53:04.944Z,45.8
2017-07-23T12:54:06.749Z,45.9
2017-07-23T12:55:08.878Z,45.9
2017-07-23T12:56:11.011Z,45.8
2017-07-23T12:57:12.481Z,46.1
2017-07-23T12:58:14.259Z,45.8
2017-07-23T12:59:16.065Z,45.8
2017-07-23T13:00:17.867Z,45.9
2017-07-23T13:01:19.666Z,45.8
2017-07-23T13:02:20.778Z,45.7
2017-07-23T13:03:22.581Z,46
2017-07-23T13:04:24.716Z,45.9
2017-07-23T13:05:26.165Z,45.8
2017-07-23T13:06:28.302Z,45.7
2017-07-23T13:07:30.434Z,45.7
2017-07-23T13:08:32.242Z,45.8
2017-07-23T13:09:34.040Z,45.8
2017-07-23T13:10:36.182Z,45.6
2017-07-23T13:11:38.315Z,45.8
2017-07-23T13:12:40.454Z,45.8
2017-07-23T13:13:42.273Z,45.9
2017-07-23T13:14:44.410Z,45.7
2017-07-23T13:15:45.883Z,45.6
2017-07-23T13:16:48.018Z,45.8
2017-07-23T13:17:50.151Z,46
2017-07-23T13:18:51.929Z,45.7
2017-07-23T13:19:54.062Z,45.5
2017-07-23T13:20:56.197Z,45.8
2017-07-23T13:21:57.672Z,45.6
2017-07-23T13:22:59.476Z,45.7
2017-07-23T13:24:00.939Z,45.5
2017-07-23T13:25:03.077Z,45.4
2017-07-23T13:26:04.526Z,45.8
2017-07-23T13:27:06.329Z,45.7
2017-07-23T13:28:08.461Z,45.5
2017-07-23T13:29:09.906Z,45.8
2017-07-23T13:30:11.354Z,45.3
2017-07-23T13:31:13.158Z,45.4
2017-07-23T13:32:15.294Z,45.5
2017-07-23T13:33:16.866Z,45.2
2017-07-23T13:34:18.999Z,45.1
2017-07-23T13:35:20.447Z,45.3
2017-07-23T13:36:22.586Z,45
2017-07-23T13:37:24.717Z,44.9
2017-07-23T13:38:26.498Z,45.1
2017-07-23T13:39:28.634Z,45.5
2017-07-23T13:40:30.438Z,45.1
2017-07-23T13:41:32.572Z,45.1
2017-07-23T13:42:34.708Z,45.4
2017-07-23T13:43:36.841Z,45.5
2017-07-23T13:44:38.972Z,45.4
2017-07-23T13:45:41.109Z,45
2017-07-23T13:46:43.240Z,45.5
2017-07-23T13:47:45.378Z,45.4
2017-07-23T13:48:46.843Z,45.8
2017-07-23T13:49:48.643Z,45.3
2017-07-23T13:50:50.781Z,45.6
2017-07-23T13:51:52.919Z,45.7